createdAt,value
2023-03-02T00:02:01.401Z,-4.88
2023-03-02T00:04:33.679Z,-4.87
2023-03-02T00:07:06.517Z,-4.83
2023-03-02T00:09:36.309Z,-4.81
2023-03-02T00:12:06.127Z,-4.88
2023-03-02T00:14:34.700Z,-5.04
2023-03-02T00:17:05.533Z,-4.98
2023-03-02T00:19:36.825Z,-5.02
2023-03-02T00:22:05.104Z,-4.86
2023-03-02T00:24:33.305Z,-4.93
2023-03-02T00:27:01.619Z,-5.12
2023-03-02T00:29:29.764Z,-5.02
2023-03-02T00:31:58.119Z,-5.18
2023-03-02T00:34:28.190Z,-5.17
2023-03-02T00:36:56.614Z,-5.09
2023-03-02T00:39:24.751Z,-5.16
2023-03-02T00:41:53.141Z,-5.19
2023-03-02T00:44:21.173Z,-5.21
2023-03-02T00:46:49.848Z,-5.20
2023-03-02T00:49:17.935Z,-5.24
2023-03-02T00:51:48.552Z,-5.22
2023-03-02T00:54:16.636Z,-5.30
2023-03-02T00:56:45.309Z,-5.36
2023-03-02T00:59:26.490Z,-5.45
2023-03-02T01:02:03.199Z,-5.37
2023-03-02T01:04:36.094Z,-5.31
2023-03-02T01:07:08.807Z,-5.57
2023-03-02T01:09:37.431Z,-5.72
2023-03-02T01:12:09.415Z,-5.67
2023-03-02T01:14:37.846Z,-5.48
2023-03-02T01:17:06.387Z,-5.47
2023-03-02T01:19:35.143Z,-5.66
2023-03-02T01:22:03.736Z,-5.75
2023-03-02T01:24:33.945Z,-5.79
2023-03-02T01:27:02.108Z,-5.82
2023-03-02T01:29:30.300Z,-5.82
2023-03-02T01:31:58.647Z,-5.86
2023-03-02T01:34:27.153Z,-5.86
2023-03-02T01:36:55.195Z,-5.80
2023-03-02T01:39:23.725Z,-5.85
2023-03-02T01:41:54.988Z,-5.98
2023-03-02T01:44:45.704Z,-5.99
2023-03-02T01:47:18.452Z,-5.93
2023-03-02T01:49:58.210Z,-6.03
2023-03-02T01:52:30.358Z,-6.17
2023-03-02T01:55:03.195Z,-6.04
2023-03-02T01:57:43.880Z,-6.03
2023-03-02T02:00:17.492Z,-5.95
2023-03-02T02:02:46.125Z,-6.00
2023-03-02T02:05:18.896Z,-5.93
2023-03-02T02:07:47.566Z,-5.98
2023-03-02T02:10:16.834Z,-6.13
2023-03-02T02:12:46.533Z,-6.19
2023-03-02T02:15:14.605Z,-6.19
2023-03-02T02:17:43.385Z,-6.17
2023-03-02T02:20:25.610Z,-6.21
2023-03-02T02:23:03.663Z,-6.25
2023-03-02T02:25:46.248Z,-6.43
2023-03-02T02:28:21.066Z,-6.34
2023-03-02T02:30:53.348Z,-6.24
2023-03-02T02:33:25.655Z,-6.14
2023-03-02T02:35:58.535Z,-6.08
2023-03-02T02:38:28.237Z,-6.12
2023-03-02T02:40:59.936Z,-6.10
2023-03-02T02:43:34.071Z,-6.04
2023-03-02T02:46:03.477Z,-6.05
2023-03-02T02:48:33.154Z,-6.06
2023-03-02T02:51:03.128Z,-6.13
2023-03-02T02:53:40.229Z,-6.16
2023-03-02T02:56:11.454Z,-6.18
2023-03-02T02:58:45.451Z,-6.20
2023-03-02T03:01:19.133Z,-6.06
2023-03-02T03:03:53.056Z,-5.90
2023-03-02T03:06:26.732Z,-5.94
2023-03-02T03:08:59.274Z,-6.07
2023-03-02T03:11:36.254Z,-6.03
2023-03-02T03:14:12.534Z,-6.22
2023-03-02T03:16:43.533Z,-6.08
2023-03-02T03:19:18.330Z,-6.06
2023-03-02T03:21:50.156Z,-6.07
2023-03-02T03:24:19.138Z,-6.13
2023-03-02T03:26:48.823Z,-6.19
2023-03-02T03:29:20.101Z,-6.20
2023-03-02T03:31:49.414Z,-6.33
2023-03-02T03:34:18.371Z,-6.37
2023-03-02T03:36:47.888Z,-6.39
2023-03-02T03:39:18.096Z,-6.41
2023-03-02T03:41:46.600Z,-6.36
2023-03-02T03:44:15.073Z,-6.33
2023-03-02T03:46:46.447Z,-6.38
2023-03-02T03:49:15.466Z,-6.49
2023-03-02T03:51:43.789Z,-6.46
2023-03-02T03:54:12.633Z,-6.33
2023-03-02T03:56:45.046Z,-6.41
2023-03-02T03:59:16.771Z,-6.39
2023-03-02T04:02:01.345Z,-6.51
2023-03-02T04:04:42.025Z,-6.61
2023-03-02T04:07:16.833Z,-6.66
2023-03-02T04:09:45.965Z,-6.77
2023-03-02T04:12:15.710Z,-6.73
2023-03-02T04:14:48.531Z,-6.78
2023-03-02T04:17:18.881Z,-6.77
2023-03-02T04:19:49.904Z,-6.72
2023-03-02T04:22:20.182Z,-6.78
2023-03-02T04:24:49.537Z,-6.87
2023-03-02T04:27:18.658Z,-6.85
2023-03-02T04:29:47.402Z,-6.93
2023-03-02T04:32:15.813Z,-6.99
2023-03-02T04:34:49.146Z,-7.03
2023-03-02T04:37:17.755Z,-6.89
2023-03-02T04:39:50.210Z,-6.99
2023-03-02T04:42:18.729Z,-6.99
2023-03-02T04:44:46.970Z,-6.96
2023-03-02T04:47:15.392Z,-7.08
2023-03-02T04:49:43.438Z,-6.93
2023-03-02T04:52:13.492Z,-7.00
2023-03-02T04:54:41.643Z,-6.99
2023-03-02T04:57:09.999Z,-7.12
2023-03-02T04:59:38.503Z,-7.14
2023-03-02T05:02:06.913Z,-7.20
2023-03-02T05:04:35.445Z,-7.09
2023-03-02T05:07:03.740Z,-7.03
2023-03-02T05:09:33.595Z,-6.94
2023-03-02T05:12:02.353Z,-6.91
2023-03-02T05:14:31.003Z,-6.90
2023-03-02T05:16:59.768Z,-7.23
2023-03-02T05:19:28.271Z,-7.26
2023-03-02T05:21:57.263Z,-7.30
2023-03-02T05:24:25.377Z,-7.30
2023-03-02T05:26:54.933Z,-7.22
2023-03-02T05:29:23.570Z,-7.14
2023-03-02T05:31:52.329Z,-7.19
2023-03-02T05:34:21.115Z,-7.11
2023-03-02T05:36:49.330Z,-7.10
2023-03-02T05:39:17.450Z,-7.15
2023-03-02T05:41:45.747Z,-7.10
2023-03-02T05:44:15.156Z,-7.25
2023-03-02T05:46:43.464Z,-7.39
2023-03-02T05:49:11.691Z,-7.30
2023-03-02T05:51:39.712Z,-7.15
2023-03-02T05:54:07.932Z,-7.09
2023-03-02T05:56:36.076Z,-6.96
2023-03-02T05:59:04.226Z,-6.90
2023-03-02T06:01:35.596Z,-6.84
2023-03-02T06:04:04.308Z,-6.89
2023-03-02T06:06:34.117Z,-6.76
2023-03-02T06:09:02.975Z,-6.85
2023-03-02T06:11:31.619Z,-6.72
2023-03-02T06:13:59.640Z,-6.70
2023-03-02T06:16:27.653Z,-6.65
2023-03-02T06:18:57.328Z,-6.54
2023-03-02T06:21:25.539Z,-6.46
2023-03-02T06:23:53.880Z,-6.36
2023-03-02T06:26:22.197Z,-6.09
2023-03-02T06:28:53.160Z,-6.06
2023-03-02T06:31:22.173Z,-5.93
2023-03-02T06:33:50.564Z,-5.98
2023-03-02T06:36:20.386Z,-6.02
2023-03-02T06:38:48.725Z,-5.92
2023-03-02T06:41:17.145Z,-5.76
2023-03-02T06:43:45.550Z,-5.62
2023-03-02T06:46:13.982Z,-5.56
2023-03-02T06:48:42.162Z,-5.38
2023-03-02T06:51:10.193Z,-5.13
2023-03-02T06:53:40.117Z,-5.21
2023-03-02T06:56:09.176Z,-5.17
2023-03-02T06:58:38.478Z,-5.11
2023-03-02T07:01:08.091Z,-5.04
2023-03-02T07:03:37.043Z,-4.93
2023-03-02T07:06:05.651Z,-4.82
2023-03-02T07:08:34.563Z,-4.49
2023-03-02T07:11:07.744Z,-4.38
2023-03-02T07:13:38.073Z,-4.25
2023-03-02T07:16:10.232Z,-4.19
2023-03-02T07:18:38.436Z,-4.21
2023-03-02T07:21:07.866Z,-4.28
2023-03-02T07:23:36.006Z,-4.06
2023-03-02T07:26:08.642Z,-2.19
2023-03-02T07:28:40.340Z,3.29
2023-03-02T07:31:09.274Z,7.29
2023-03-02T07:33:37.943Z,9.72
2023-03-02T07:36:07.549Z,12.33
2023-03-02T07:38:35.633Z,14.40
2023-03-02T07:41:07.769Z,16.13
2023-03-02T07:43:36.800Z,16.92
2023-03-02T07:46:07.560Z,16.15
2023-03-02T07:48:36.728Z,19.15
2023-03-02T07:51:06.610Z,20.23
2023-03-02T07:53:34.682Z,18.72
2023-03-02T07:56:09.120Z,15.64
2023-03-02T07:58:37.798Z,16.02
2023-03-02T08:01:07.700Z,18.33
2023-03-02T08:03:35.741Z,19.42
2023-03-02T08:06:07.097Z,21.35
2023-03-02T08:08:35.951Z,22.68
2023-03-02T08:11:08.563Z,20.40
2023-03-02T08:13:37.324Z,19.58
2023-03-02T08:16:09.727Z,19.56
2023-03-02T08:18:39.107Z,20.57
2023-03-02T08:21:13.086Z,17.82
2023-03-02T08:23:41.525Z,14.84
2023-03-02T08:26:13.173Z,12.30
2023-03-02T08:28:42.904Z,14.09
2023-03-02T08:31:13.002Z,16.03
2023-03-02T08:33:41.552Z,14.35
2023-03-02T08:36:13.808Z,15.31
2023-03-02T08:38:41.893Z,18.61
2023-03-02T08:41:13.157Z,17.99
2023-03-02T08:43:41.313Z,15.39
2023-03-02T08:46:09.861Z,14.64
2023-03-02T08:48:39.703Z,14.41
2023-03-02T08:51:09.400Z,14.64
2023-03-02T08:53:40.710Z,14.22
2023-03-02T08:56:16.988Z,14.44
2023-03-02T08:58:45.272Z,16.32
2023-03-02T09:01:18.504Z,18.24
2023-03-02T09:03:48.852Z,16.86
2023-03-02T09:06:17.379Z,17.64
2023-03-02T09:08:46.296Z,14.92
2023-03-02T09:11:14.731Z,13.63
2023-03-02T09:13:43.339Z,13.24
2023-03-02T09:16:12.396Z,11.95
2023-03-02T09:18:40.932Z,12.59
2023-03-02T09:21:11.888Z,13.79
2023-03-02T09:23:40.145Z,13.95
2023-03-02T09:26:08.587Z,13.67
2023-03-02T09:28:38.358Z,13.37
2023-03-02T09:31:08.459Z,13.36
2023-03-02T09:33:37.464Z,11.30
2023-03-02T09:36:12.947Z,13.18
2023-03-02T09:38:41.066Z,10.25
2023-03-02T09:41:36.128Z,9.54
2023-03-02T09:44:17.919Z,11.56
2023-03-02T09:46:51.253Z,11.18
2023-03-02T09:49:32.775Z,10.98
2023-03-02T09:52:11.956Z,11.27
2023-03-02T09:54:41.986Z,10.60
2023-03-02T09:57:22.108Z,10.98
2023-03-02T09:59:55.377Z,11.90
2023-03-02T10:02:29.514Z,12.07
2023-03-02T10:05:00.827Z,12.00
2023-03-02T10:07:32.457Z,11.68
2023-03-02T10:10:05.685Z,11.79
2023-03-02T10:12:52.812Z,12.44
2023-03-02T10:15:27.545Z,11.75
2023-03-02T10:18:02.277Z,10.64
2023-03-02T10:20:35.992Z,11.15
2023-03-02T10:23:27.705Z,10.43
2023-03-02T10:26:02.303Z,11.37
2023-03-02T10:28:36.932Z,10.83
2023-03-02T10:31:10.932Z,10.29
2023-03-02T10:33:42.172Z,11.24
2023-03-02T10:36:22.932Z,12.07
2023-03-02T10:38:53.045Z,12.41
2023-03-02T10:41:26.424Z,12.23
2023-03-02T10:44:00.736Z,12.28
2023-03-02T10:46:41.290Z,11.92
2023-03-02T10:49:25.576Z,11.38
2023-03-02T10:51:59.184Z,12.32
2023-03-02T10:54:30.173Z,12.86
2023-03-02T10:57:01.221Z,12.64
2023-03-02T10:59:43.445Z,11.19
2023-03-02T11:02:18.574Z,8.83
2023-03-02T11:04:47.389Z,9.62
2023-03-02T11:07:18.997Z,10.03
2023-03-02T11:09:59.883Z,10.83
2023-03-02T11:12:27.953Z,11.61
2023-03-02T11:15:19.817Z,11.10
2023-03-02T11:17:51.890Z,11.67
2023-03-02T11:20:25.335Z,10.23
2023-03-02T11:23:03.946Z,9.98
2023-03-02T11:26:01.146Z,10.39
2023-03-02T11:28:47.108Z,10.78
2023-03-02T11:31:24.923Z,11.78
2023-03-02T11:34:15.649Z,12.29
2023-03-02T11:36:53.848Z,9.94
2023-03-02T11:39:30.640Z,9.10
2023-03-02T11:42:00.360Z,9.01
2023-03-02T11:44:29.918Z,7.75
2023-03-02T11:47:02.982Z,7.54
2023-03-02T11:49:40.818Z,8.84
2023-03-02T11:52:19.421Z,9.54
2023-03-02T11:54:53.831Z,9.88
2023-03-02T11:57:29.232Z,9.07
2023-03-02T11:59:58.933Z,9.13
2023-03-02T12:02:28.562Z,9.47
2023-03-02T12:05:04.921Z,9.66
2023-03-02T12:07:33.557Z,9.91
2023-03-02T12:10:05.259Z,8.73
2023-03-02T12:12:42.780Z,9.48
2023-03-02T12:15:45.471Z,8.18
2023-03-02T12:18:28.790Z,8.83
2023-03-02T12:21:03.179Z,9.29
2023-03-02T12:24:00.789Z,9.67
2023-03-02T12:26:34.065Z,8.55
2023-03-02T12:29:08.308Z,8.74
2023-03-02T12:31:44.632Z,9.38
2023-03-02T12:34:35.568Z,9.38
2023-03-02T12:37:09.387Z,9.28
2023-03-02T12:40:12.512Z,9.02
2023-03-02T12:42:51.158Z,9.08
2023-03-02T12:45:36.118Z,9.32
2023-03-02T12:48:11.585Z,9.11
2023-03-02T12:50:41.050Z,9.11
2023-03-02T12:53:19.582Z,9.14
2023-03-02T12:55:48.033Z,8.83
2023-03-02T12:58:19.546Z,8.62
2023-03-02T13:00:54.760Z,9.14
2023-03-02T13:03:23.269Z,9.03
2023-03-02T13:05:51.572Z,9.81
2023-03-02T13:08:24.332Z,9.72
2023-03-02T13:10:54.700Z,9.13
2023-03-02T13:13:25.229Z,8.84
2023-03-02T13:15:58.438Z,9.31
2023-03-02T13:18:32.107Z,9.28
2023-03-02T13:21:01.696Z,8.74
2023-03-02T13:23:32.075Z,8.77
2023-03-02T13:26:02.098Z,7.05
2023-03-02T13:28:31.962Z,8.15
2023-03-02T13:31:04.887Z,8.03
2023-03-02T13:33:36.145Z,8.28
2023-03-02T13:36:04.552Z,9.10
2023-03-02T13:38:36.718Z,9.12
2023-03-02T13:41:05.617Z,9.00
2023-03-02T13:43:39.195Z,8.87
2023-03-02T13:46:28.710Z,8.82
2023-03-02T13:49:13.715Z,8.62
2023-03-02T13:51:45.458Z,8.41
2023-03-02T13:54:22.312Z,8.79
2023-03-02T13:56:53.716Z,9.13
2023-03-02T13:59:23.458Z,8.95
2023-03-02T14:01:53.280Z,8.57
2023-03-02T14:04:23.982Z,9.38
2023-03-02T14:06:53.022Z,10.28
2023-03-02T14:09:21.932Z,9.29
2023-03-02T14:11:53.575Z,9.19
2023-03-02T14:14:24.630Z,9.05
2023-03-02T14:16:54.663Z,9.22
2023-03-02T14:19:22.866Z,8.89
2023-03-02T14:21:51.045Z,9.07
2023-03-02T14:24:19.351Z,9.45
2023-03-02T14:26:49.813Z,8.96
2023-03-02T14:29:26.764Z,8.84
2023-03-02T14:31:56.946Z,8.72
2023-03-02T14:34:25.262Z,8.79
2023-03-02T14:36:55.634Z,8.92
2023-03-02T14:39:29.800Z,8.75
2023-03-02T14:41:58.524Z,8.74
2023-03-02T14:44:27.001Z,8.46
2023-03-02T14:46:57.607Z,8.32
2023-03-02T14:49:26.368Z,8.39
2023-03-02T14:52:01.762Z,9.20
2023-03-02T14:54:37.527Z,8.91
2023-03-02T14:57:06.410Z,9.16
2023-03-02T14:59:34.559Z,9.47
2023-03-02T15:02:19.018Z,9.38
2023-03-02T15:04:56.043Z,9.72
2023-03-02T15:07:26.366Z,9.93
2023-03-02T15:09:55.660Z,9.98
2023-03-02T15:12:24.072Z,9.70
2023-03-02T15:14:52.261Z,9.81
2023-03-02T15:17:22.073Z,9.60
2023-03-02T15:19:50.267Z,9.89
2023-03-02T15:22:18.611Z,9.28
2023-03-02T15:24:46.908Z,8.85
2023-03-02T15:27:15.846Z,9.23
2023-03-02T15:29:45.955Z,8.84
2023-03-02T15:32:14.339Z,9.07
2023-03-02T15:34:45.344Z,9.11
2023-03-02T15:37:13.807Z,9.09
2023-03-02T15:39:42.251Z,8.94
2023-03-02T15:42:12.636Z,8.60
2023-03-02T15:44:42.267Z,8.33
2023-03-02T15:47:12.827Z,8.23
2023-03-02T15:49:41.080Z,8.08
2023-03-02T15:52:12.450Z,8.16
2023-03-02T15:54:40.877Z,8.46
2023-03-02T15:57:10.240Z,8.29
2023-03-02T15:59:38.686Z,8.39
2023-03-02T16:02:09.321Z,8.47
2023-03-02T16:04:37.995Z,8.26
2023-03-02T16:07:06.439Z,8.19
2023-03-02T16:09:35.874Z,7.84
2023-03-02T16:12:04.242Z,7.44
2023-03-02T16:14:32.339Z,7.22
2023-03-02T16:17:00.722Z,7.06
2023-03-02T16:19:30.450Z,6.60
2023-03-02T16:21:58.752Z,6.19
2023-03-02T16:24:26.954Z,5.77
2023-03-02T16:26:56.771Z,5.61
2023-03-02T16:29:25.271Z,5.19
2023-03-02T16:31:53.807Z,4.76
2023-03-02T16:34:22.426Z,4.40
2023-03-02T16:36:50.816Z,3.99
2023-03-02T16:39:19.267Z,3.43
2023-03-02T16:41:47.906Z,3.11
2023-03-02T16:44:18.226Z,2.84
2023-03-02T16:46:47.133Z,2.72
2023-03-02T16:49:15.425Z,2.41
2023-03-02T16:51:44.225Z,2.18
2023-03-02T16:54:16.983Z,1.81
2023-03-02T16:56:47.477Z,1.51
2023-03-02T16:59:17.765Z,1.25
2023-03-02T17:01:46.084Z,1.11
2023-03-02T17:04:14.273Z,0.94
2023-03-02T17:06:59.562Z,0.75
2023-03-02T17:09:29.092Z,0.64
2023-03-02T17:11:57.286Z,0.42
2023-03-02T17:14:27.188Z,0.31
2023-03-02T17:16:56.480Z,0.32
2023-03-02T17:19:26.831Z,0.35
2023-03-02T17:21:57.555Z,0.33
2023-03-02T17:24:25.806Z,0.27
2023-03-02T17:26:54.181Z,0.27
2023-03-02T17:29:23.068Z,0.05
2023-03-02T17:31:52.498Z,0.05
2023-03-02T17:34:20.899Z,-0.13
2023-03-02T17:36:49.187Z,-0.25
2023-03-02T17:39:17.125Z,-0.22
2023-03-02T17:41:45.585Z,-0.36
2023-03-02T17:44:14.080Z,-0.38
2023-03-02T17:46:44.050Z,-0.28
2023-03-02T17:49:14.177Z,-0.34
2023-03-02T17:51:42.234Z,-0.42
2023-03-02T17:54:10.369Z,-0.41
2023-03-02T17:56:38.624Z,-0.44
2023-03-02T17:59:07.475Z,-0.52
2023-03-02T18:01:36.189Z,-0.59
2023-03-02T18:04:05.014Z,-0.60
2023-03-02T18:06:34.941Z,-0.65
2023-03-02T18:09:03.209Z,-0.80
2023-03-02T18:11:31.515Z,-0.95
2023-03-02T18:13:59.832Z,-1.07
2023-03-02T18:16:29.473Z,-1.04
2023-03-02T18:18:58.521Z,-0.92
2023-03-02T18:21:27.002Z,-0.92
2023-03-02T18:23:56.674Z,-0.82
2023-03-02T18:26:25.278Z,-0.96
2023-03-02T18:28:53.510Z,-1.12
2023-03-02T18:31:22.175Z,-1.26
2023-03-02T18:33:50.863Z,-1.35
2023-03-02T18:36:19.665Z,-1.27
2023-03-02T18:38:47.751Z,-1.35
2023-03-02T18:41:17.220Z,-1.18
2023-03-02T18:43:45.459Z,-1.11
2023-03-02T18:46:23.417Z,-1.29
2023-03-02T18:48:52.989Z,-1.23
2023-03-02T18:51:22.889Z,-1.23
2023-03-02T18:53:52.151Z,-1.18
2023-03-02T18:56:22.066Z,-1.44
2023-03-02T18:58:51.993Z,-1.67
2023-03-02T19:01:20.756Z,-1.59
2023-03-02T19:03:49.368Z,-1.44
2023-03-02T19:06:18.008Z,-1.44
2023-03-02T19:08:48.068Z,-1.60
2023-03-02T19:11:16.207Z,-1.54
2023-03-02T19:13:45.992Z,-1.67
2023-03-02T19:16:14.211Z,-1.82
2023-03-02T19:18:42.502Z,-1.92
2023-03-02T19:21:10.763Z,-1.82
2023-03-02T19:23:38.932Z,-1.77
2023-03-02T19:26:08.530Z,-1.85
2023-03-02T19:28:38.514Z,-1.77
2023-03-02T19:31:11.562Z,-1.79
2023-03-02T19:33:40.070Z,-1.90
2023-03-02T19:36:09.551Z,-1.82
2023-03-02T19:38:41.602Z,-1.98
2023-03-02T19:41:12.330Z,-1.88
2023-03-02T19:43:42.022Z,-1.81
2023-03-02T19:46:11.761Z,-1.76
2023-03-02T19:48:40.461Z,-1.92
2023-03-02T19:51:09.459Z,-1.93
2023-03-02T19:53:40.299Z,-1.91
2023-03-02T19:56:12.813Z,-2.03
2023-03-02T19:58:47.395Z,-1.98
2023-03-02T20:01:21.647Z,-2.05
2023-03-02T20:03:49.995Z,-2.11
2023-03-02T20:06:18.007Z,-2.17
2023-03-02T20:08:48.099Z,-2.23
2023-03-02T20:11:16.834Z,-2.24
2023-03-02T20:13:45.488Z,-2.30
2023-03-02T20:16:23.029Z,-2.29
2023-03-02T20:18:51.522Z,-2.38
2023-03-02T20:21:21.383Z,-2.42
2023-03-02T20:23:50.011Z,-2.40
2023-03-02T20:26:18.235Z,-2.12
2023-03-02T20:28:49.577Z,-2.12
2023-03-02T20:31:19.665Z,-2.11
2023-03-02T20:33:50.963Z,-2.23
2023-03-02T20:36:23.711Z,-2.34
2023-03-02T20:38:57.912Z,-2.38
2023-03-02T20:41:26.135Z,-2.28
2023-03-02T20:43:54.530Z,-2.23
2023-03-02T20:46:27.766Z,-2.18
2023-03-02T20:48:56.373Z,-2.22
2023-03-02T20:51:25.880Z,-2.17
2023-03-02T20:53:57.219Z,-2.20
2023-03-02T20:56:25.925Z,-2.21
2023-03-02T20:58:54.189Z,-2.23
2023-03-02T21:01:25.439Z,-2.27
2023-03-02T21:03:54.130Z,-2.25
2023-03-02T21:06:22.689Z,-2.29
2023-03-02T21:08:52.526Z,-2.29
2023-03-02T21:11:23.425Z,-2.31
2023-03-02T21:13:51.551Z,-2.30
2023-03-02T21:16:23.065Z,-2.30
2023-03-02T21:18:54.845Z,-2.32
2023-03-02T21:21:35.660Z,-2.30
2023-03-02T21:24:09.131Z,-2.52
2023-03-02T21:26:37.589Z,-2.60
2023-03-02T21:29:06.585Z,-2.57
2023-03-02T21:31:34.688Z,-2.58
2023-03-02T21:34:04.132Z,-2.70
2023-03-02T21:36:33.132Z,-2.77
2023-03-02T21:39:01.403Z,-2.87
2023-03-02T21:41:29.900Z,-2.87
2023-03-02T21:43:58.203Z,-2.95
2023-03-02T21:46:26.267Z,-2.96
2023-03-02T21:48:55.074Z,-2.92
2023-03-02T21:51:24.572Z,-3.13
2023-03-02T21:53:53.616Z,-3.18
2023-03-02T21:56:24.079Z,-3.25
2023-03-02T21:58:54.856Z,-3.37
2023-03-02T22:01:23.806Z,-3.34
2023-03-02T22:03:52.218Z,-3.41
2023-03-02T22:06:22.727Z,-3.36
2023-03-02T22:08:52.638Z,-3.28
2023-03-02T22:11:22.786Z,-3.37
2023-03-02T22:13:53.145Z,-3.33
2023-03-02T22:16:22.900Z,-3.33
2023-03-02T22:18:55.563Z,-3.37
2023-03-02T22:21:31.387Z,-3.47
2023-03-02T22:24:18.878Z,-3.51
2023-03-02T22:26:49.145Z,-3.54
2023-03-02T22:29:19.296Z,-3.62
2023-03-02T22:31:49.653Z,-3.54
2023-03-02T22:34:23.495Z,-3.55
2023-03-02T22:36:52.471Z,-3.43
2023-03-02T22:39:29.256Z,-3.46
2023-03-02T22:42:06.345Z,-3.41
2023-03-02T22:44:34.768Z,-3.33
2023-03-02T22:47:03.653Z,-3.30
2023-03-02T22:49:32.234Z,-3.29
2023-03-02T22:52:02.386Z,-3.43
2023-03-02T22:54:38.492Z,-3.53
2023-03-02T22:57:21.255Z,-3.56
2023-03-02T22:59:50.016Z,-3.54
2023-03-02T23:02:22.378Z,-3.48
2023-03-02T23:04:50.954Z,-3.46
2023-03-02T23:07:20.854Z,-3.50
2023-03-02T23:09:50.611Z,-3.48
2023-03-02T23:12:23.345Z,-3.48
2023-03-02T23:14:53.609Z,-3.47
2023-03-02T23:17:24.629Z,-3.37
2023-03-02T23:19:52.893Z,-3.25
2023-03-02T23:22:21.362Z,-3.32
2023-03-02T23:24:50.836Z,-3.30
2023-03-02T23:27:19.708Z,-3.51
2023-03-02T23:29:48.284Z,-3.63
2023-03-02T23:32:18.368Z,-3.68
2023-03-02T23:34:47.802Z,-3.65
2023-03-02T23:37:16.120Z,-3.63
2023-03-02T23:39:46.139Z,-3.56
2023-03-02T23:42:16.206Z,-3.63
2023-03-02T23:44:44.709Z,-3.62
2023-03-02T23:47:13.065Z,-3.67
2023-03-02T23:49:41.072Z,-3.68
2023-03-02T23:52:09.038Z,-3.67
2023-03-02T23:54:37.524Z,-3.63
2023-03-02T23:57:05.500Z,-3.68
2023-03-02T23:59:35.092Z,-3.65
